Time;durP1;ratioP1;P1;durP2;ratioP2;P2;SDS_P1;SDS_P2;PMS_P1;PMS_P2;Temp;Humidity;BMP_temperature;BMP_pressure;BME280_temperature;BME280_humidity;BME280_pressure;Samples;Min_cycle;Max_cycle;Signal;HPM_P1;HPM_P2
2022/03/04 00:01:38;;;;;;;18.65;3.13;;;23.10;71.00;;;;;;5027163;28;20026;-69
2022/03/04 00:04:05;;;;;;;10.80;2.72;;;23.10;71.10;;;;;;5026567;28;20099;-69
2022/03/04 00:06:31;;;;;;;7.28;2.72;;;23.10;71.30;;;;;;5028643;28;20060;-69
2022/03/04 00:08:58;;;;;;;6.78;2.70;;;23.00;71.30;;;;;;5028142;28;20063;-69
2022/03/04 00:11:24;;;;;;;10.18;2.72;;;23.00;71.30;;;;;;5026156;28;20435;-69
2022/03/04 00:13:51;;;;;;;8.95;2.95;;;23.10;71.30;;;;;;5027862;28;20460;-69
2022/03/04 00:16:17;;;;;;;12.55;3.80;;;23.00;71.20;;;;;;5024173;28;20485;-69
2022/03/04 00:18:44;;;;;;;8.77;4.15;;;23.00;71.20;;;;;;5029048;28;20033;-69
2022/03/04 00:21:11;;;;;;;7.97;3.42;;;23.00;71.20;;;;;;5024864;28;20029;-69
2022/03/04 00:23:38;;;;;;;7.80;2.72;;;23.00;71.20;;;;;;5025663;28;20013;-69
2022/03/04 00:26:05;;;;;;;9.23;2.40;;;23.00;71.20;;;;;;5025462;28;20064;-69
2022/03/04 00:28:32;;;;;;;9.55;2.65;;;23.00;71.20;;;;;;5026686;28;20018;-69
2022/03/04 00:30:59;;;;;;;7.00;2.53;;;23.00;71.30;;;;;;5026443;28;20057;-69
2022/03/04 00:33:25;;;;;;;6.05;2.13;;;22.90;71.20;;;;;;5025866;28;20076;-69
2022/03/04 00:35:54;;;;;;;6.07;2.28;;;22.90;71.20;;;;;;5025582;28;20041;-69
2022/03/04 00:38:21;;;;;;;8.73;2.72;;;22.90;71.30;;;;;;5025371;28;20056;-69
2022/03/04 00:40:48;;;;;;;17.95;2.72;;;22.90;71.40;;;;;;5027183;28;20440;-69
2022/03/04 00:43:15;;;;;;;10.85;3.05;;;22.90;71.40;;;;;;5025455;28;20400;-69
2022/03/04 00:45:41;;;;;;;19.88;4.50;;;22.90;71.50;;;;;;5026988;28;20029;-69
2022/03/04 00:48:07;;;;;;;10.82;3.65;;;22.90;71.40;;;;;;5027199;28;20060;-69
2022/03/04 00:50:34;;;;;;;4.10;2.05;;;22.80;71.40;;;;;;5025603;28;20096;-69
2022/03/04 00:53:02;;;;;;;7.15;2.15;;;22.90;71.40;;;;;;5025183;28;20128;-69
2022/03/04 00:55:29;;;;;;;6.18;2.55;;;22.80;71.40;;;;;;5024835;28;20021;-69
2022/03/04 00:57:56;;;;;;;4.18;1.90;;;22.80;71.30;;;;;;5028291;28;20033;-69
2022/03/04 01:00:22;;;;;;;5.38;2.00;;;22.80;71.30;;;;;;5024514;28;20079;-69
2022/03/04 01:02:49;;;;;;;8.50;2.33;;;22.80;71.40;;;;;;5025071;28;20492;-69
2022/03/04 01:05:15;;;;;;;8.18;3.13;;;22.80;71.40;;;;;;5024578;28;20028;-69
2022/03/04 01:07:42;;;;;;;10.00;4.05;;;22.80;71.50;;;;;;5024891;28;20017;-69
2022/03/04 01:10:09;;;;;;;7.35;2.60;;;22.80;71.70;;;;;;5027495;28;20020;-69
2022/03/04 01:12:35;;;;;;;7.15;2.92;;;22.70;71.60;;;;;;5024224;28;20045;-69
2022/03/04 01:15:02;;;;;;;8.35;3.38;;;22.70;71.60;;;;;;5027262;28;20025;-69
2022/03/04 01:17:29;;;;;;;7.85;2.65;;;22.70;71.60;;;;;;5025550;28;20036;-69
2022/03/04 01:19:55;;;;;;;7.75;3.72;;;22.70;71.70;;;;;;5025410;28;20021;-69
2022/03/04 01:22:22;;;;;;;7.95;2.35;;;22.70;71.70;;;;;;5023861;28;20022;-69
2022/03/04 01:24:48;;;;;;;5.43;2.25;;;22.70;71.80;;;;;;5026250;28;20018;-69
2022/03/04 01:27:15;;;;;;;6.80;2.45;;;22.70;71.80;;;;;;5026935;28;20018;-69
2022/03/04 01:29:41;;;;;;;4.85;3.05;;;22.70;71.80;;;;;;5024817;28;20093;-69
2022/03/04 01:32:08;;;;;;;5.47;3.30;;;22.70;71.80;;;;;;5026452;28;20036;-69
2022/03/04 01:34:34;;;;;;;10.40;3.60;;;22.70;71.90;;;;;;5024275;28;20396;-68
2022/03/04 01:37:01;;;;;;;15.48;3.95;;;22.70;71.80;;;;;;5027111;28;20513;-69
2022/03/04 01:39:27;;;;;;;18.33;3.08;;;22.70;72.20;;;;;;5026496;28;20030;-69
2022/03/04 01:41:54;;;;;;;11.85;3.03;;;22.70;72.30;;;;;;5026830;28;20026;-69
2022/03/04 01:44:21;;;;;;;12.98;2.65;;;22.60;72.20;;;;;;5027021;28;20018;-68
2022/03/04 01:46:47;;;;;;;10.75;2.47;;;22.60;72.00;;;;;;5025916;28;20021;-68
2022/03/04 01:49:14;;;;;;;5.88;2.13;;;22.60;71.80;;;;;;5025800;28;20232;-69
2022/03/04 01:51:40;;;;;;;25.42;4.88;;;22.50;71.60;;;;;;5025820;28;20041;-69
2022/03/04 01:54:07;;;;;;;20.08;3.47;;;22.50;72.00;;;;;;5026367;28;20101;-68
2022/03/04 01:56:33;;;;;;;15.63;2.67;;;22.60;72.70;;;;;;5026868;28;20367;-68
2022/03/04 01:59:00;;;;;;;9.68;2.38;;;22.50;73.00;;;;;;5026363;28;20025;-68
2022/03/04 02:01:26;;;;;;;8.35;2.30;;;22.50;73.00;;;;;;5025662;28;20032;-69
2022/03/04 02:03:53;;;;;;;5.30;2.25;;;22.50;73.00;;;;;;5026439;28;20095;-70
2022/03/04 02:06:19;;;;;;;4.07;2.00;;;22.50;72.90;;;;;;5030629;28;20026;-69
2022/03/04 02:08:46;;;;;;;4.82;2.63;;;22.50;72.80;;;;;;5028313;28;20060;-68
2022/03/04 02:11:12;;;;;;;7.97;2.10;;;22.50;72.80;;;;;;5029872;28;20033;-69
2022/03/04 02:13:39;;;;;;;8.38;2.22;;;22.50;72.80;;;;;;5027790;28;20515;-69
2022/03/04 02:16:18;;;;;;;5.78;2.35;;;22.50;72.80;;;;;;5029274;28;20052;-68
2022/03/04 02:18:44;;;;;;;6.35;3.50;;;22.50;72.80;;;;;;5030444;28;20056;-69
2022/03/04 02:21:13;;;;;;;8.10;3.50;;;22.50;73.00;;;;;;5027742;28;20036;-69
2022/03/04 02:23:39;;;;;;;11.85;4.55;;;22.50;73.10;;;;;;5029415;28;20494;-68
2022/03/04 02:26:06;;;;;;;8.93;5.15;;;22.40;73.00;;;;;;5028979;28;20472;-69
2022/03/04 02:28:33;;;;;;;6.88;4.53;;;22.40;72.90;;;;;;5029408;28;20026;-69
2022/03/04 02:30:59;;;;;;;10.55;5.07;;;22.50;72.90;;;;;;5028350;28;20040;-69
2022/03/04 02:33:26;;;;;;;9.05;5.07;;;22.40;73.00;;;;;;5028262;28;20388;-68
2022/03/04 02:35:52;;;;;;;9.25;5.05;;;22.40;73.00;;;;;;5030384;28;20037;-68
2022/03/04 02:38:19;;;;;;;9.82;4.60;;;22.40;73.70;;;;;;5027852;28;20022;-68
2022/03/04 02:40:45;;;;;;;11.23;5.40;;;22.40;73.10;;;;;;5028526;28;20018;-68
2022/03/04 02:43:12;;;;;;;10.52;4.35;;;22.40;73.00;;;;;;5028150;28;20032;-68
2022/03/04 02:45:38;;;;;;;11.68;4.90;;;22.40;73.10;;;;;;5029341;28;20049;-68
2022/03/04 02:48:05;;;;;;;13.48;4.43;;;22.40;73.40;;;;;;5028277;28;20052;-69
2022/03/04 02:50:32;;;;;;;10.95;3.92;;;22.40;73.50;;;;;;5028745;28;20045;-69
2022/03/04 02:52:58;;;;;;;7.90;4.15;;;22.30;73.40;;;;;;5027953;28;20030;-69
2022/03/04 02:55:25;;;;;;;7.20;4.30;;;22.30;73.30;;;;;;5026639;28;20414;-69
2022/03/04 02:57:51;;;;;;;11.15;4.10;;;22.30;73.30;;;;;;5029818;28;20103;-68
2022/03/04 03:00:18;;;;;;;18.45;4.68;;;22.30;73.30;;;;;;5028528;28;20017;-68
2022/03/04 03:02:44;;;;;;;13.40;4.95;;;22.30;73.40;;;;;;5028694;28;20049;-68
2022/03/04 03:05:12;;;;;;;14.38;7.28;;;22.30;73.60;;;;;;5027385;28;20021;-68
2022/03/04 03:07:39;;;;;;;12.95;7.28;;;22.30;73.60;;;;;;5030395;28;20028;-68
2022/03/04 03:10:06;;;;;;;13.07;8.00;;;22.30;73.40;;;;;;5028297;28;20431;-68
2022/03/04 03:12:33;;;;;;;20.48;8.55;;;22.30;73.40;;;;;;5027965;28;20036;-68
2022/03/04 03:15:00;;;;;;;33.38;7.93;;;22.30;73.40;;;;;;5028684;28;20423;-68
2022/03/04 03:17:26;;;;;;;30.38;7.25;;;22.30;73.40;;;;;;5025799;28;20491;-67
2022/03/04 03:19:53;;;;;;;55.88;15.85;;;22.20;73.20;;;;;;5028696;28;20164;-67
2022/03/04 03:22:19;;;;;;;47.05;23.70;;;22.20;73.30;;;;;;5028855;28;20022;-68
2022/03/04 03:24:46;;;;;;;27.60;16.27;;;22.20;73.50;;;;;;5025106;28;20019;-68
2022/03/04 03:27:14;;;;;;;21.55;9.43;;;22.20;73.30;;;;;;5026036;28;20041;-68
2022/03/04 03:29:40;;;;;;;12.60;6.25;;;22.20;73.00;;;;;;5024788;28;20124;-68
2022/03/04 03:32:10;;;;;;;31.73;6.28;;;22.20;73.00;;;;;;5026114;28;20045;-67
2022/03/04 03:34:37;;;;;;;26.02;6.35;;;22.10;73.30;;;;;;5025277;28;20014;-65
2022/03/04 03:37:04;;;;;;;12.82;5.32;;;22.10;73.30;;;;;;5028237;28;20025;-67
2022/03/04 03:39:30;;;;;;;54.17;6.85;;;22.20;73.10;;;;;;5027805;28;20380;-67
2022/03/04 03:41:57;;;;;;;47.00;7.43;;;22.10;73.00;;;;;;5029716;28;20029;-66
2022/03/04 03:45:03;;;;;;;71.97;9.15;;;22.00;73.80;;;;;;5026176;28;20045;-67
2022/03/04 03:47:46;;;;;;;50.35;23.58;;;22.00;74.50;;;;;;5026698;28;20030;-65
2022/03/04 03:50:13;;;;;;;43.50;23.80;;;22.00;74.70;;;;;;5027642;28;20606;-66
2022/03/04 03:52:40;;;;;;;29.77;16.70;;;22.00;74.70;;;;;;5026441;28;20033;-68
2022/03/04 03:55:07;;;;;;;36.97;11.63;;;22.00;74.60;;;;;;5026059;28;20013;-67
2022/03/04 03:57:33;;;;;;;19.17;6.00;;;22.00;74.30;;;;;;5027865;28;20025;-66
2022/03/04 04:00:00;;;;;;;30.65;6.70;;;22.00;73.80;;;;;;5028972;28;20518;-65
2022/03/04 04:02:26;;;;;;;26.40;5.70;;;22.00;74.10;;;;;;5028122;28;20022;-67
2022/03/04 04:04:53;;;;;;;19.92;5.50;;;22.00;74.20;;;;;;5022635;28;20510;-65
2022/03/04 04:07:20;;;;;;;13.75;4.47;;;21.90;74.10;;;;;;5028165;28;20020;-66
2022/03/04 04:09:46;;;;;;;10.70;4.93;;;21.90;74.20;;;;;;5025319;28;20546;-66
2022/03/04 04:12:13;;;;;;;19.35;5.55;;;21.90;74.20;;;;;;5029165;28;20030;-65
2022/03/04 04:14:39;;;;;;;16.38;4.97;;;21.90;74.20;;;;;;5023433;28;20025;-65
2022/03/04 04:17:06;;;;;;;12.50;4.40;;;21.90;74.20;;;;;;5026743;28;20057;-65
2022/03/04 04:19:32;;;;;;;6.68;4.07;;;21.90;74.20;;;;;;5025818;28;20113;-66
2022/03/04 04:21:59;;;;;;;51.80;7.05;;;21.90;74.10;;;;;;5026851;28;20029;-66
2022/03/04 04:24:25;;;;;;;113.20;12.80;;;21.90;74.20;;;;;;5028734;28;20055;-66
2022/03/04 04:26:51;;;;;;;51.08;8.25;;;21.90;74.30;;;;;;5026583;28;20084;-66
2022/03/04 04:29:19;;;;;;;18.58;5.53;;;21.90;74.50;;;;;;5024374;28;20018;-67
2022/03/04 04:31:45;;;;;;;14.63;5.28;;;21.90;74.60;;;;;;5024117;28;20037;-67
2022/03/04 04:34:12;;;;;;;17.92;4.65;;;21.90;74.70;;;;;;5029563;28;20033;-66
2022/03/04 04:36:38;;;;;;;10.10;4.03;;;21.90;74.80;;;;;;5029409;28;20022;-66
2022/03/04 04:39:05;;;;;;;15.73;4.05;;;21.80;74.90;;;;;;5028202;28;20049;-67
2022/03/04 04:41:31;;;;;;;11.00;3.65;;;21.90;75.10;;;;;;5029486;28;20140;-69
2022/03/04 04:43:58;;;;;;;10.50;3.70;;;21.90;75.20;;;;;;5027624;28;20025;-68
2022/03/04 04:46:24;;;;;;;14.85;4.72;;;21.90;75.10;;;;;;5028878;28;20025;-67
2022/03/04 04:48:51;;;;;;;10.05;3.40;;;21.90;75.00;;;;;;5025787;28;20046;-66
2022/03/04 04:51:18;;;;;;;10.15;4.40;;;21.90;75.00;;;;;;5026805;28;20029;-67
2022/03/04 04:53:44;;;;;;;15.75;4.10;;;21.80;74.90;;;;;;5026216;28;20606;-66
2022/03/04 04:56:11;;;;;;;28.17;4.55;;;21.80;74.90;;;;;;5023229;28;20043;-66
2022/03/04 04:58:37;;;;;;;51.33;7.38;;;21.90;75.10;;;;;;5029055;28;20103;-66
2022/03/04 05:01:04;;;;;;;26.52;4.20;;;21.80;75.40;;;;;;5025927;28;20033;-66
2022/03/04 05:03:30;;;;;;;16.23;3.90;;;21.80;75.50;;;;;;5043279;28;20400;-66
2022/03/04 05:05:57;;;;;;;11.93;4.28;;;21.90;75.60;;;;;;5016277;28;20113;-66
2022/03/04 05:08:26;;;;;;;7.35;3.58;;;21.80;75.70;;;;;;5029227;28;20036;-66
2022/03/04 05:10:54;;;;;;;6.47;3.00;;;21.90;75.80;;;;;;5029202;28;20080;-66
2022/03/04 05:13:20;;;;;;;5.78;3.72;;;21.90;75.80;;;;;;5027643;28;20025;-66
2022/03/04 05:15:47;;;;;;;7.88;3.13;;;21.90;75.80;;;;;;5027024;28;20432;-66
2022/03/04 05:18:13;;;;;;;8.52;4.00;;;21.90;76.00;;;;;;5024940;28;20034;-66
2022/03/04 05:20:40;;;;;;;8.35;3.72;;;21.90;76.20;;;;;;5027304;28;20141;-66
2022/03/04 05:23:06;;;;;;;10.35;4.25;;;21.90;76.20;;;;;;5029803;28;20112;-66
2022/03/04 05:25:33;;;;;;;18.65;4.90;;;21.90;76.50;;;;;;5027908;28;20021;-66
2022/03/04 05:28:00;;;;;;;12.88;4.75;;;21.90;76.40;;;;;;5028061;28;20026;-66
2022/03/04 05:30:26;;;;;;;15.65;4.18;;;21.90;76.60;;;;;;5024302;28;20035;-66
2022/03/04 05:32:53;;;;;;;16.98;5.15;;;21.90;76.80;;;;;;5027244;28;20400;-66
2022/03/04 05:35:19;;;;;;;9.93;3.97;;;21.90;77.10;;;;;;5028086;28;20041;-66
2022/03/04 05:37:46;;;;;;;15.50;4.65;;;21.90;77.20;;;;;;5030568;28;20512;-66
2022/03/04 05:40:12;;;;;;;11.30;4.38;;;21.90;77.20;;;;;;5028285;28;20502;-66
2022/03/04 05:42:39;;;;;;;110.47;10.27;;;21.90;77.10;;;;;;5033198;28;20061;-66
2022/03/04 05:45:06;;;;;;;69.65;8.75;;;21.90;77.30;;;;;;5033833;28;20018;-66
2022/03/04 05:47:32;;;;;;;34.10;5.75;;;22.00;77.80;;;;;;5032517;28;20358;-66
2022/03/04 05:49:59;;;;;;;16.98;4.38;;;22.00;77.90;;;;;;5030047;28;20045;-66
2022/03/04 05:52:25;;;;;;;11.68;3.90;;;22.00;78.00;;;;;;5028527;28;20485;-66
2022/03/04 05:54:52;;;;;;;9.80;4.25;;;22.00;78.00;;;;;;5030064;28;20029;-66
2022/03/04 05:57:18;;;;;;;9.07;4.32;;;22.00;78.10;;;;;;5033123;28;20021;-66
2022/03/04 05:59:45;;;;;;;10.55;5.22;;;22.00;78.20;;;;;;5030918;28;20420;-66
2022/03/04 06:02:11;;;;;;;10.20;4.82;;;22.00;78.30;;;;;;5031382;28;20464;-66
2022/03/04 06:04:38;;;;;;;9.43;3.88;;;22.00;78.30;;;;;;5032842;28;20236;-66
2022/03/04 06:07:05;;;;;;;9.95;4.38;;;22.00;78.40;;;;;;5033935;28;20017;-66
2022/03/04 06:09:32;;;;;;;15.90;4.60;;;22.10;78.50;;;;;;5030305;28;20033;-67
2022/03/04 06:11:58;;;;;;;8.05;4.20;;;22.00;78.50;;;;;;5034428;28;20033;-66
2022/03/04 06:14:25;;;;;;;9.68;4.22;;;22.00;78.50;;;;;;5030962;28;20435;-66
2022/03/04 06:16:51;;;;;;;10.95;4.70;;;22.10;78.50;;;;;;5029875;28;20030;-66
2022/03/04 06:19:20;;;;;;;9.93;3.55;;;22.10;78.50;;;;;;5021217;28;20022;-66
2022/03/04 06:21:47;;;;;;;14.52;2.67;;;22.10;78.40;;;;;;5031506;28;20037;-66
2022/03/04 06:24:13;;;;;;;24.45;4.28;;;22.10;78.40;;;;;;5031876;28;20099;-66
2022/03/04 06:26:39;;;;;;;23.02;4.43;;;22.10;78.40;;;;;;5031364;28;20068;-66
2022/03/04 06:29:06;;;;;;;12.27;2.83;;;22.10;78.30;;;;;;5028623;28;20540;-66
2022/03/04 06:31:32;;;;;;;7.20;2.47;;;22.10;78.20;;;;;;5030655;28;20038;-66
2022/03/04 06:33:59;;;;;;;6.25;2.05;;;22.20;78.00;;;;;;5031344;28;20400;-67
2022/03/04 06:36:25;;;;;;;5.93;2.95;;;22.20;77.70;;;;;;5028761;28;20432;-66
2022/03/04 06:38:52;;;;;;;6.18;2.10;;;22.20;77.30;;;;;;5030846;28;20100;-66
2022/03/04 06:41:18;;;;;;;104.82;7.68;;;22.20;77.00;;;;;;5028488;28;20481;-66
2022/03/04 06:43:45;;;;;;;68.78;5.65;;;22.30;76.80;;;;;;5026678;28;20038;-66
2022/03/04 06:46:11;;;;;;;94.57;9.32;;;22.30;76.60;;;;;;5030966;28;20029;-66
2022/03/04 06:48:38;;;;;;;66.15;7.47;;;22.30;76.30;;;;;;5029761;28;20056;-66
2022/03/04 06:51:04;;;;;;;82.45;8.20;;;22.30;76.20;;;;;;5029851;28;20037;-66
2022/03/04 06:53:31;;;;;;;85.68;8.60;;;22.40;76.30;;;;;;5029183;28;20495;-66
2022/03/04 06:55:57;;;;;;;62.72;7.70;;;22.40;76.10;;;;;;5032353;28;20072;-66
2022/03/04 06:58:25;;;;;;;100.43;12.18;;;22.50;75.80;;;;;;5030698;28;20036;-66
2022/03/04 07:00:51;;;;;;;181.63;13.55;;;22.50;75.50;;;;;;5026680;28;20025;-66
2022/03/04 07:03:19;;;;;;;93.70;8.50;;;22.60;75.50;;;;;;5026154;28;20029;-66
2022/03/04 07:05:46;;;;;;;91.47;9.27;;;22.60;75.60;;;;;;5028623;28;20072;-66
2022/03/04 07:08:13;;;;;;;68.43;7.20;;;22.60;75.30;;;;;;5027473;28;20075;-66
2022/03/04 07:10:42;;;;;;;67.75;5.65;;;22.70;75.30;;;;;;5029422;28;20029;-67
2022/03/04 07:13:10;;;;;;;45.25;7.90;;;22.70;75.10;;;;;;5031396;28;20037;-66
2022/03/04 07:15:36;;;;;;;31.48;4.80;;;22.70;74.90;;;;;;5028034;28;20109;-67
2022/03/04 07:18:03;;;;;;;27.50;3.85;;;22.80;74.80;;;;;;5031441;28;20029;-66
2022/03/04 07:20:30;;;;;;;34.50;3.65;;;22.80;74.60;;;;;;5029429;28;20032;-66
2022/03/04 07:22:56;;;;;;;30.10;2.90;;;22.90;74.90;;;;;;5032588;28;20023;-66
2022/03/04 07:25:23;;;;;;;17.85;2.55;;;22.90;75.10;;;;;;5030038;28;20017;-67
2022/03/04 07:27:49;;;;;;;20.77;3.47;;;22.90;74.90;;;;;;5028500;28;20104;-67
2022/03/04 07:30:17;;;;;;;6.00;2.13;;;23.00;74.20;;;;;;5030668;28;20072;-66
2022/03/04 07:32:44;;;;;;;9.05;1.77;;;23.00;74.00;;;;;;5026625;28;20038;-67
2022/03/04 07:35:11;;;;;;;6.72;1.45;;;23.10;73.80;;;;;;5031955;28;20380;-67
2022/03/04 07:37:40;;;;;;;9.13;1.73;;;23.20;73.80;;;;;;5027355;28;20143;-66
2022/03/04 07:40:09;;;;;;;15.68;2.03;;;23.20;73.20;;;;;;5030408;28;20530;-66
2022/03/04 07:42:35;;;;;;;2.55;1.00;;;23.20;72.50;;;;;;5032113;28;20519;-67
2022/03/04 07:45:03;;;;;;;4.20;1.67;;;23.30;72.30;;;;;;5027509;28;20018;-67
2022/03/04 07:47:30;;;;;;;17.27;2.08;;;23.30;72.20;;;;;;5030460;28;20026;-68
2022/03/04 07:49:57;;;;;;;8.63;2.45;;;23.40;72.30;;;;;;5029170;28;20049;-67
2022/03/04 07:52:31;;;;;;;15.15;1.70;;;23.40;72.20;;;;;;5028970;28;20092;-66
2022/03/04 07:55:03;;;;;;;14.48;1.85;;;23.50;72.10;;;;;;5027558;28;20112;-67
2022/03/04 07:57:29;;;;;;;14.77;2.17;;;23.50;72.00;;;;;;5031613;28;20480;-67
2022/03/04 07:59:56;;;;;;;34.25;3.38;;;23.60;72.30;;;;;;5028672;28;20397;-67
2022/03/04 08:02:22;;;;;;;40.15;3.17;;;23.60;72.10;;;;;;5029006;28;20108;-66
2022/03/04 08:04:50;;;;;;;26.95;2.58;;;23.60;72.00;;;;;;5029201;28;20032;-66
2022/03/04 08:07:17;;;;;;;14.38;2.20;;;23.60;71.60;;;;;;5030783;28;20105;-66
2022/03/04 08:09:44;;;;;;;9.95;1.80;;;23.70;71.40;;;;;;5029630;28;20022;-67
2022/03/04 08:12:11;;;;;;;7.53;1.83;;;23.80;71.00;;;;;;5031485;28;20036;-67
2022/03/04 08:14:38;;;;;;;8.68;1.27;;;23.80;70.80;;;;;;5025645;28;20033;-67
2022/03/04 08:17:04;;;;;;;4.20;1.80;;;23.90;70.80;;;;;;5025197;28;20563;-66
2022/03/04 08:19:33;;;;;;;2.75;1.00;;;23.90;69.90;;;;;;5028580;28;20079;-67
2022/03/04 08:21:59;;;;;;;10.82;1.48;;;23.90;69.70;;;;;;5029726;28;20025;-66
2022/03/04 08:24:26;;;;;;;4.72;1.50;;;24.00;69.50;;;;;;5027636;28;20096;-66
2022/03/04 08:26:52;;;;;;;4.65;1.33;;;24.00;69.10;;;;;;5031637;28;20022;-66
2022/03/04 08:29:19;;;;;;;7.03;2.40;;;24.10;68.80;;;;;;5027232;28;20380;-66
2022/03/04 08:31:45;;;;;;;5.32;1.55;;;24.10;68.50;;;;;;5027505;28;20038;-66
2022/03/04 08:34:12;;;;;;;4.50;0.80;;;24.20;68.30;;;;;;5029637;28;20025;-67
2022/03/04 08:36:38;;;;;;;3.03;0.88;;;24.20;67.70;;;;;;5030466;28;20434;-66
2022/03/04 08:39:05;;;;;;;3.80;0.80;;;24.30;67.90;;;;;;5027627;28;20470;-66
2022/03/04 08:41:33;;;;;;;3.33;0.85;;;24.30;67.00;;;;;;5030240;28;20490;-66
2022/03/04 08:44:00;;;;;;;5.63;1.48;;;24.30;67.20;;;;;;5028291;28;20064;-66
2022/03/04 08:46:26;;;;;;;7.38;1.70;;;24.40;66.80;;;;;;5028383;28;20445;-66
2022/03/04 08:48:53;;;;;;;7.35;1.25;;;24.40;66.60;;;;;;5030298;28;20037;-66
2022/03/04 08:51:24;;;;;;;3.55;0.98;;;24.50;66.10;;;;;;5025382;28;20060;-66
2022/03/04 08:53:54;;;;;;;2.03;0.70;;;24.60;65.50;;;;;;5027702;28;20148;-67
2022/03/04 08:56:22;;;;;;;1.92;1.00;;;24.60;64.00;;;;;;5027912;28;20109;-67
2022/03/04 08:58:49;;;;;;;4.35;0.93;;;24.70;63.80;;;;;;5028915;28;20029;-67
2022/03/04 09:01:18;;;;;;;3.63;0.60;;;24.70;63.80;;;;;;5025336;28;20029;-66
2022/03/04 09:03:44;;;;;;;1.50;0.77;;;24.70;63.80;;;;;;5024864;28;20101;-66
2022/03/04 09:06:11;;;;;;;2.85;0.88;;;24.70;64.10;;;;;;5029363;28;20022;-66
2022/03/04 09:08:38;;;;;;;3.53;0.65;;;24.80;63.40;;;;;;5028897;28;20093;-66
2022/03/04 09:11:04;;;;;;;5.97;1.25;;;24.90;63.00;;;;;;5030195;28;20389;-66
2022/03/04 09:13:32;;;;;;;3.17;0.82;;;24.90;62.80;;;;;;5024374;28;20092;-66
2022/03/04 09:16:00;;;;;;;4.80;1.15;;;25.00;62.80;;;;;;5027287;28;20416;-66
2022/03/04 09:18:26;;;;;;;5.82;1.23;;;25.00;62.30;;;;;;5025083;28;20485;-67
2022/03/04 09:20:53;;;;;;;3.17;0.80;;;25.00;62.40;;;;;;5027099;28;20030;-67
2022/03/04 09:23:20;;;;;;;5.43;1.20;;;25.10;62.00;;;;;;5027623;28;20100;-67
2022/03/04 09:25:48;;;;;;;6.93;0.95;;;25.20;62.00;;;;;;5025755;28;20072;-66
2022/03/04 09:28:16;;;;;;;7.25;1.10;;;25.20;61.80;;;;;;5023720;28;20006;-66
2022/03/04 09:30:42;;;;;;;18.92;1.92;;;25.20;61.80;;;;;;5028635;28;20044;-68
2022/03/04 09:33:09;;;;;;;8.02;1.17;;;25.30;61.80;;;;;;5027564;28;20037;-66
2022/03/04 09:35:35;;;;;;;5.82;1.02;;;25.30;62.30;;;;;;5027331;28;20018;-68
2022/03/04 09:38:02;;;;;;;7.18;1.50;;;25.30;61.30;;;;;;5027083;28;20017;-68
2022/03/04 09:40:29;;;;;;;11.30;2.53;;;25.40;61.10;;;;;;5025428;28;20025;-69
2022/03/04 09:42:55;;;;;;;28.67;3.17;;;25.40;61.10;;;;;;5029202;28;20029;-67
2022/03/04 09:45:22;;;;;;;15.50;2.33;;;25.50;60.30;;;;;;5027684;28;20535;-67
2022/03/04 09:47:49;;;;;;;25.40;2.88;;;25.50;60.90;;;;;;5029531;28;20025;-67
2022/03/04 09:50:16;;;;;;;9.75;1.60;;;25.60;60.60;;;;;;5027778;28;20041;-67
2022/03/04 09:52:46;;;;;;;6.90;1.20;;;25.60;60.40;;;;;;5028781;28;20533;-67
2022/03/04 09:55:13;;;;;;;5.63;1.33;;;25.60;59.90;;;;;;5025442;28;20447;-68
2022/03/04 09:57:41;;;;;;;7.18;1.38;;;25.70;59.50;;;;;;5028179;28;20087;-67
2022/03/04 10:00:11;;;;;;;3.42;1.50;;;25.70;59.30;;;;;;5027223;28;20014;-68
2022/03/04 10:02:38;;;;;;;18.67;2.78;;;25.80;58.80;;;;;;5028571;28;20416;-67
2022/03/04 10:05:05;;;;;;;13.30;2.45;;;25.80;58.40;;;;;;5026926;28;20022;-67
2022/03/04 10:07:43;;;;;;;39.10;4.05;;;25.80;58.60;;;;;;5029323;28;20060;-68
2022/03/04 10:10:11;;;;;;;20.38;2.65;;;25.90;58.70;;;;;;5027626;28;20138;-69
2022/03/04 10:12:55;;;;;;;40.53;3.55;;;25.90;58.00;;;;;;5028846;28;20358;-67
2022/03/04 10:15:22;;;;;;;18.80;2.33;;;26.00;57.70;;;;;;5026676;28;20039;-67
2022/03/04 10:17:58;;;;;;;21.48;2.17;;;26.00;57.80;;;;;;5028977;28;20028;-67
2022/03/04 10:20:39;;;;;;;8.30;1.30;;;26.10;58.00;;;;;;5027601;28;20045;-68
2022/03/04 10:23:13;;;;;;;8.45;1.27;;;26.10;57.80;;;;;;5024713;28;20025;-68
2022/03/04 10:25:43;;;;;;;17.10;1.87;;;26.20;57.60;;;;;;5027357;28;20032;-67
2022/03/04 10:28:10;;;;;;;9.00;1.60;;;26.20;57.40;;;;;;5031363;28;20404;-67
2022/03/04 10:30:37;;;;;;;9.50;1.55;;;26.20;57.40;;;;;;5028934;28;20033;-67
2022/03/04 10:33:08;;;;;;;8.70;1.35;;;26.30;57.30;;;;;;5032576;28;20025;-67
2022/03/04 10:35:35;;;;;;;6.30;0.95;;;26.30;57.30;;;;;;5028815;28;20034;-68
2022/03/04 10:38:04;;;;;;;6.15;1.30;;;26.40;57.10;;;;;;5031758;28;20018;-68
2022/03/04 10:40:43;;;;;;;12.98;1.38;;;26.40;56.50;;;;;;5031114;28;20436;-67
2022/03/04 10:43:11;;;;;;;5.82;1.65;;;26.40;56.40;;;;;;5031724;28;20510;-67
2022/03/04 10:45:43;;;;;;;6.95;1.45;;;26.50;56.60;;;;;;5027409;28;20122;-67
2022/03/04 10:48:15;;;;;;;3.97;1.20;;;26.50;56.60;;;;;;5033721;28;20075;-68
2022/03/04 10:50:44;;;;;;;6.35;0.90;;;26.60;56.60;;;;;;5030464;28;20037;-67
2022/03/04 10:53:13;;;;;;;2.55;1.35;;;26.60;56.50;;;;;;5028565;28;20539;-67
2022/03/04 10:55:45;;;;;;;3.00;0.93;;;26.60;56.50;;;;;;5025563;28;20013;-68
2022/03/04 10:58:17;;;;;;;4.40;0.77;;;26.70;56.60;;;;;;5031455;28;20032;-67
2022/03/04 11:01:12;;;;;;;2.05;0.85;;;26.70;56.70;;;;;;5029321;28;20064;-67
2022/03/04 11:03:42;;;;;;;3.50;0.98;;;26.80;56.60;;;;;;5029743;28;20080;-68
2022/03/04 11:06:11;;;;;;;5.18;2.25;;;26.80;56.40;;;;;;5032383;28;20056;-68
2022/03/04 11:08:38;;;;;;;8.48;1.52;;;26.90;56.10;;;;;;5029390;28;20361;-67
2022/03/04 11:11:07;;;;;;;7.50;1.30;;;26.90;56.20;;;;;;5031387;28;20025;-68
2022/03/04 11:13:34;;;;;;;6.38;1.00;;;26.90;56.50;;;;;;5031220;28;20021;-67
2022/03/04 11:16:02;;;;;;;1.05;0.93;;;27.00;55.90;;;;;;5028307;28;20354;-68
2022/03/04 11:18:29;;;;;;;2.22;0.85;;;27.00;55.70;;;;;;5028323;28;20022;-67
2022/03/04 11:20:59;;;;;;;7.57;1.17;;;27.10;55.70;;;;;;5032131;28;20022;-68
2022/03/04 11:23:31;;;;;;;6.78;1.33;;;27.10;55.50;;;;;;5029801;28;20116;-67
2022/03/04 11:26:00;;;;;;;4.40;1.23;;;27.10;55.60;;;;;;5029953;28;20477;-67
2022/03/04 11:28:50;;;;;;;3.40;0.90;;;27.20;55.40;;;;;;5030467;28;20036;-68
2022/03/04 11:31:23;;;;;;;1.95;1.00;;;27.20;55.40;;;;;;5028311;28;20032;-67
2022/03/04 11:33:58;;;;;;;4.85;0.95;;;27.20;55.20;;;;;;5028443;28;20029;-67
2022/03/04 11:36:25;;;;;;;;;;;27.30;55.20;;;;;;5028258;28;20622;-67
2022/03/04 11:38:53;;;;;;;5.15;1.08;;;27.30;55.00;;;;;;5029049;28;20276;-67
2022/03/04 11:41:34;;;;;;;7.50;1.30;;;27.40;55.20;;;;;;5025215;28;20022;-68
2022/03/04 11:44:17;;;;;;;17.77;2.08;;;27.40;55.10;;;;;;5031061;28;20055;-67
2022/03/04 11:46:52;;;;;;;2.08;0.90;;;27.50;55.10;;;;;;5028640;28;20029;-67
2022/03/04 11:49:48;;;;;;;8.23;1.90;;;27.50;55.10;;;;;;5025521;28;20041;-67
2022/03/04 11:52:26;;;;;;;6.20;1.98;;;27.50;55.10;;;;;;5026157;28;20570;-67
2022/03/04 11:55:00;;;;;;;5.15;1.35;;;27.60;55.30;;;;;;5026713;28;20046;-67
2022/03/04 11:57:45;;;;;;;4.00;1.40;;;27.60;55.10;;;;;;5024876;28;20040;-67
2022/03/04 12:00:12;;;;;;;5.38;1.02;;;27.60;54.90;;;;;;5028484;28;20035;-67
2022/03/04 12:02:51;;;;;;;5.00;1.15;;;27.60;55.00;;;;;;5029636;28;20040;-67
2022/03/04 12:05:27;;;;;;;6.28;1.05;;;27.60;55.30;;;;;;5025552;28;20026;-67
2022/03/04 12:07:56;;;;;;;4.63;1.25;;;27.70;55.40;;;;;;5030479;28;20022;-67
2022/03/04 12:10:25;;;;;;;8.68;1.60;;;27.70;55.50;;;;;;5029729;28;20443;-69
2022/03/04 12:13:06;;;;;;;17.17;1.77;;;27.60;55.60;;;;;;5023488;28;20032;-68
2022/03/04 12:16:11;;;;;;;4.28;1.17;;;27.70;55.80;;;;;;5025109;28;20498;-67
2022/03/04 12:18:41;;;;;;;11.30;3.47;;;27.70;55.90;;;;;;5005614;28;20038;-67
2022/03/04 12:21:13;;;;;;;6.20;1.42;;;27.70;56.70;;;;;;5030485;28;20025;-67
2022/03/04 12:23:42;;;;;;;10.05;1.80;;;27.80;56.20;;;;;;5028876;28;20030;-68
2022/03/04 12:26:22;;;;;;;2.92;0.93;;;27.70;56.30;;;;;;5027207;28;20030;-67
2022/03/04 12:29:01;;;;;;;10.13;1.80;;;27.70;56.30;;;;;;5025585;28;20037;-67
2022/03/04 12:31:29;;;;;;;8.73;1.55;;;27.80;56.60;;;;;;5030995;28;20411;-67
2022/03/04 12:33:58;;;;;;;8.68;1.83;;;27.80;56.80;;;;;;5026793;28;20033;-67
2022/03/04 12:36:27;;;;;;;6.57;1.25;;;27.80;57.70;;;;;;5028064;28;20013;-67
2022/03/04 12:38:59;;;;;;;5.32;1.40;;;27.80;57.10;;;;;;5030704;28;20037;-68
2022/03/04 12:41:31;;;;;;;10.98;1.40;;;27.80;57.20;;;;;;5029417;28;20465;-67
2022/03/04 12:44:01;;;;;;;5.22;1.83;;;27.80;57.40;;;;;;5026570;28;20084;-67
2022/03/04 12:46:34;;;;;;;7.13;1.83;;;27.90;57.50;;;;;;5029085;28;20477;-68